createdAt,value
2018-03-17T10:35:36.182Z,0.04
2018-03-17T10:36:58.182Z,0.18
2018-03-17T10:38:20.092Z,0.11
2018-03-17T10:39:42.225Z,0.1
2018-03-17T10:41:04.487Z,0.03
2018-03-17T10:42:26.445Z,-0.11
2018-03-17T10:43:48.423Z,-0.11
2018-03-17T10:45:10.616Z,-0.22
2018-03-17T10:46:31.999Z,-0.19
2018-03-17T10:47:53.977Z,-0.34
2018-03-17T10:49:15.596Z,-0.34
2018-03-17T10:50:37.595Z,-0.28
2018-03-17T10:51:59.744Z,-0.26
2018-03-17T10:53:21.962Z,-0.21
2018-03-17T10:54:43.631Z,-0.14
2018-03-17T10:56:05.883Z,-0.15
2018-03-17T10:57:27.502Z,0.03
2018-03-17T10:58:49.132Z,0.11
2018-03-17T11:00:11.237Z,0.17
2018-03-17T11:01:33.308Z,0.2
2018-03-17T11:02:54.672Z,0.07
2018-03-17T11:04:16.599Z,0.11
2018-03-17T11:05:38.591Z,0.17
2018-03-17T11:07:00.570Z,0.1
2018-03-17T11:08:22.864Z,0.15
2018-03-17T11:09:44.503Z,0.24
2018-03-17T11:11:06.707Z,0.39
2018-03-17T11:12:28.644Z,0.42
2018-03-17T11:13:50.553Z,0.47
2018-03-17T11:15:12.495Z,0.61
2018-03-17T11:16:34.702Z,0.61
2018-03-17T11:17:56.632Z,0.62
2018-03-17T11:19:18.653Z,0.55
2018-03-17T11:20:40.568Z,0.78
2018-03-17T11:22:02.641Z,0.72
2018-03-17T11:23:24.984Z,0.78
2018-03-17T11:24:47.415Z,0.83
2018-03-17T11:26:09.530Z,0.78
2018-03-17T11:27:30.896Z,0.84
2018-03-17T11:28:52.796Z,0.8
2018-03-17T11:30:14.721Z,0.68
2018-03-17T11:31:36.900Z,0.76
2018-03-17T11:32:59.080Z,0.69
2018-03-17T11:34:21.285Z,0.61
2018-03-17T11:35:43.450Z,0.62
2018-03-17T11:37:05.604Z,0.68
2018-03-17T11:38:27.609Z,0.57
2018-03-17T11:39:49.794Z,0.53
2018-03-17T11:41:11.674Z,0.78
2018-03-17T11:42:33.316Z,0.72
2018-03-17T11:43:55.221Z,0.66
2018-03-17T11:45:17.359Z,0.78
2018-03-17T11:46:38.971Z,0.9
2018-03-17T11:48:01.217Z,0.9
2018-03-17T11:49:22.801Z,0.93
2018-03-17T11:50:44.934Z,1
2018-03-17T11:52:06.912Z,1.27
2018-03-17T11:53:29.091Z,1.08
2018-03-17T11:54:51.110Z,0.93
2018-03-17T11:56:12.751Z,0.97
2018-03-17T11:57:34.462Z,1.11
2018-03-17T11:58:56.730Z,1.34
2018-03-17T12:00:18.348Z,1.37
2018-03-17T12:01:40.011Z,1.47
2018-03-17T12:03:02.315Z,1.77
2018-03-17T12:04:24.236Z,1.76
2018-03-17T12:05:46.419Z,1.76
2018-03-17T12:07:08.612Z,1.37
2018-03-17T12:08:30.742Z,1.22
2018-03-17T12:09:52.670Z,1.16
2018-03-17T12:11:14.592Z,1.29
2018-03-17T12:12:36.629Z,1.29
2018-03-17T12:13:58.819Z,1.29
2018-03-17T12:15:20.469Z,1.29
2018-03-17T12:16:42.361Z,1.33
2018-03-17T12:18:04.043Z,1.12
2018-03-17T12:19:25.655Z,1.11
2018-03-17T12:20:47.812Z,0.8
2018-03-17T12:22:09.722Z,0.83
2018-03-17T12:23:31.160Z,0.79
2018-03-17T12:24:52.911Z,0.78
2018-03-17T12:26:14.874Z,0.73
2018-03-17T12:27:36.553Z,0.69
2018-03-17T12:28:58.528Z,0.55
2018-03-17T12:30:20.061Z,0.76
2018-03-17T12:31:41.944Z,0.69
2018-03-17T12:33:03.835Z,0.62
2018-03-17T12:34:25.791Z,0.68
2018-03-17T12:35:47.293Z,0.76
2018-03-17T12:37:08.915Z,0.75
2018-03-17T12:38:30.251Z,0.61
2018-03-17T12:39:52.412Z,0.53
2018-03-17T12:41:14.637Z,0.5
2018-03-17T12:42:36.791Z,0.57
2018-03-17T12:43:58.951Z,0.58
2018-03-17T12:45:20.608Z,0.6
2018-03-17T12:46:42.504Z,0.68
2018-03-17T12:48:04.749Z,0.61
2018-03-17T12:49:26.977Z,0.55
2018-03-17T12:50:49.134Z,0.79
2018-03-17T12:52:10.824Z,0.76
2018-03-17T12:53:32.711Z,0.84
2018-03-17T12:54:55.067Z,0.79
2018-03-17T12:56:16.704Z,0.9
2018-03-17T12:57:38.472Z,0.93
2018-03-17T12:59:00.525Z,1.16
2018-03-17T13:00:22.507Z,1.26
2018-03-17T13:01:44.835Z,1.37
2018-03-17T13:03:06.825Z,1.44
2018-03-17T13:04:28.973Z,1.37
2018-03-17T13:05:50.900Z,1.34
2018-03-17T13:07:13.097Z,1.33
2018-03-17T13:08:35.264Z,1.24
2018-03-17T13:09:57.440Z,1.2
2018-03-17T13:11:19.152Z,1.27
2018-03-17T13:12:41.440Z,1.33
2018-03-17T13:14:03.689Z,1.29
2018-03-17T13:15:25.960Z,1.26
2018-03-17T13:16:48.260Z,1.24
2018-03-17T13:18:10.512Z,1.15
2018-03-17T13:19:32.800Z,1.24
2018-03-17T13:20:55.080Z,1.22
2018-03-17T13:22:16.696Z,1.27
2018-03-17T13:23:38.595Z,1.37
2018-03-17T13:25:00.611Z,1.42
2018-03-17T13:26:22.624Z,1.3
2018-03-17T13:27:44.537Z,1.32
2018-03-17T13:29:06.465Z,1.29
2018-03-17T13:30:28.144Z,1.34
2018-03-17T13:31:49.809Z,1.26
2018-03-17T13:33:11.638Z,1.24
2018-03-17T13:34:33.002Z,1.12
2018-03-17T13:35:54.897Z,1.11
2018-03-17T13:37:17.111Z,1.09
2018-03-17T13:38:39.018Z,1.14
2018-03-17T13:40:01.021Z,1.06
2018-03-17T13:41:22.981Z,1.2
2018-03-17T13:42:44.970Z,1.27
2018-03-17T13:44:07.269Z,1.29
2018-03-17T13:45:29.469Z,1.23
2018-03-17T13:46:51.369Z,1.29
2018-03-17T13:48:12.986Z,1.41
2018-03-17T13:49:34.538Z,1.34
2018-03-17T13:50:56.452Z,1.44
2018-03-17T13:52:17.882Z,1.41
2018-03-17T13:53:39.914Z,1.42
2018-03-17T13:55:02.145Z,1.34
2018-03-17T13:56:24.428Z,1.27
2018-03-17T13:57:46.610Z,1.23
2018-03-17T13:59:08.538Z,1.3
2018-03-17T14:00:29.922Z,1.26
2018-03-17T14:01:51.576Z,1.22
2018-03-17T14:03:13.667Z,1.24
2018-03-17T14:04:35.575Z,1.24
2018-03-17T14:05:57.571Z,1.18
2018-03-17T14:07:19.760Z,1.09
2018-03-17T14:08:41.710Z,1.15
2018-03-17T14:10:03.355Z,1.29
2018-03-17T14:11:25.681Z,1.18
2018-03-17T14:12:47.867Z,1.27
2018-03-17T14:14:10.081Z,1.24
2018-03-17T14:15:31.760Z,1.24
2018-03-17T14:16:53.936Z,1.29
2018-03-17T14:18:15.590Z,1.32
2018-03-17T14:19:36.969Z,1.42
2018-03-17T14:20:58.889Z,1.26
2018-03-17T14:22:20.788Z,1.04
2018-03-17T14:23:42.751Z,1.02
2018-03-17T14:25:04.309Z,0.98
2018-03-17T14:26:25.963Z,1.04
2018-03-17T14:27:48.118Z,1.16
2018-03-17T14:29:09.728Z,1.33
2018-03-17T14:30:31.475Z,1.29
2018-03-17T14:31:53.378Z,1.26
2018-03-17T14:33:14.800Z,1.22
2018-03-17T14:34:36.970Z,1.29
2018-03-17T14:35:59.143Z,1.23
2018-03-17T14:37:20.880Z,1.26
2018-03-17T14:38:43.033Z,1.3
2018-03-17T14:40:05.241Z,1.29
2018-03-17T14:41:27.189Z,1.23
2018-03-17T14:42:49.119Z,1.32
2018-03-17T14:44:11.021Z,1.18
2018-03-17T14:45:33.000Z,1.2
2018-03-17T14:46:55.256Z,1.16
2018-03-17T14:48:17.187Z,1.23
2018-03-17T14:49:39.350Z,1.29
2018-03-17T14:51:01.252Z,1.47
2018-03-17T14:52:23.483Z,1.44
2018-03-17T14:53:45.702Z,1.37
2018-03-17T14:55:07.620Z,1.3
2018-03-17T14:56:29.500Z,1.37
2018-03-17T14:57:51.824Z,1.3
2018-03-17T14:59:14.010Z,1.29
2018-03-17T15:00:35.967Z,1.34
2018-03-17T15:01:57.922Z,1.41
2018-03-17T15:03:20.103Z,1.24
2018-03-17T15:04:42.262Z,1.33
2018-03-17T15:06:04.455Z,1.29
2018-03-17T15:07:26.613Z,1.24
2018-03-17T15:08:48.807Z,1.29
2018-03-17T15:10:10.459Z,1.29
2018-03-17T15:11:32.105Z,1.3
2018-03-17T15:12:54.322Z,1.32
2018-03-17T15:14:16.521Z,1.29
2018-03-17T15:15:37.890Z,1.22
2018-03-17T15:16:59.509Z,1.27
2018-03-17T15:18:21.429Z,1.33
2018-03-17T15:19:43.380Z,1.29
2018-03-17T15:21:05.295Z,1.05
2018-03-17T15:22:27.267Z,1.08
2018-03-17T15:23:49.157Z,1
2018-03-17T15:25:11.428Z,1.08
2018-03-17T15:26:33.408Z,1.11
2018-03-17T15:27:55.357Z,1.09
2018-03-17T15:29:17.590Z,1.08
2018-03-17T15:30:39.478Z,1.15
2018-03-17T15:32:01.679Z,1.12
2018-03-17T15:33:23.894Z,1.16
2018-03-17T15:34:45.523Z,1.22
2018-03-17T15:36:07.443Z,1.22
2018-03-17T15:37:29.626Z,1.18
2018-03-17T15:38:51.613Z,1.08
2018-03-17T15:40:13.929Z,1.08
2018-03-17T15:41:36.190Z,1.27
2018-03-17T15:42:58.100Z,1.27
2018-03-17T15:44:20.293Z,1.18
2018-03-17T15:45:42.211Z,1.24
2018-03-17T15:47:04.639Z,1.16
2018-03-17T15:48:26.554Z,1.09
2018-03-17T15:49:48.475Z,1
2018-03-17T15:51:10.465Z,1.05
2018-03-17T15:52:32.623Z,0.9
2018-03-17T15:53:54.250Z,0.9
2018-03-17T15:55:15.617Z,0.94
2018-03-17T15:56:37.277Z,0.88
2018-03-17T15:57:59.507Z,0.96
2018-03-17T15:59:21.672Z,0.91
2018-03-17T16:00:43.311Z,0.9
2018-03-17T16:02:05.441Z,0.91
2018-03-17T16:03:27.357Z,0.87
2018-03-17T16:04:49.584Z,0.91
2018-03-17T16:06:11.524Z,0.88
2018-03-17T16:07:33.178Z,0.83
2018-03-17T16:08:55.374Z,0.83
2018-03-17T16:10:17.025Z,0.83
2018-03-17T16:11:39.422Z,0.76
2018-03-17T16:13:01.032Z,0.68
2018-03-17T16:14:23.237Z,0.69
2018-03-17T16:15:44.864Z,0.69
2018-03-17T16:17:07.030Z,0.6
2018-03-17T16:18:28.750Z,0.58
2018-03-17T16:19:50.823Z,0.61
2018-03-17T16:21:13.190Z,0.53
2018-03-17T16:22:35.326Z,0.58
2018-03-17T16:23:57.235Z,0.5
2018-03-17T16:25:19.574Z,0.49
2018-03-17T16:26:41.532Z,0.51
2018-03-17T16:28:03.158Z,0.46
2018-03-17T16:29:25.075Z,0.5
2018-03-17T16:30:46.798Z,0.58
2018-03-17T16:32:08.449Z,0.57
2018-03-17T16:33:30.687Z,0.57
2018-03-17T16:34:52.353Z,0.39
2018-03-17T16:36:14.504Z,0.36
2018-03-17T16:37:36.560Z,0.51
2018-03-17T16:38:58.541Z,0.39
2018-03-17T16:40:20.212Z,0.29
2018-03-17T16:41:41.868Z,0.38
2018-03-17T16:43:04.032Z,0.32
2018-03-17T16:44:25.992Z,0.32
2018-03-17T16:45:47.374Z,0.32
2018-03-17T16:47:09.031Z,0.23
2018-03-17T16:48:30.950Z,0.26
2018-03-17T16:49:52.922Z,0.2
2018-03-17T16:51:15.138Z,0.32
2018-03-17T16:52:37.064Z,0.21
2018-03-17T16:53:59.261Z,0.13
2018-03-17T16:55:21.433Z,0.17
2018-03-17T16:56:43.368Z,0.02
2018-03-17T16:58:05.292Z,0.07
2018-03-17T16:59:27.261Z,-0.05
2018-03-17T17:00:49.173Z,-0.04
2018-03-17T17:02:11.157Z,-0.14
2018-03-17T17:03:33.358Z,-0.1
2018-03-17T17:04:55.259Z,-0.08
2018-03-17T17:06:16.922Z,-0.08
2018-03-17T17:07:38.898Z,-0.16
2018-03-17T17:09:01.068Z,-0.21
2018-03-17T17:10:22.712Z,-0.15
2018-03-17T17:11:44.350Z,-0.23
2018-03-17T17:13:06.029Z,-0.19
2018-03-17T17:14:27.931Z,-0.31
2018-03-17T17:15:49.840Z,-0.34
2018-03-17T17:17:11.587Z,-0.26
2018-03-17T17:18:33.932Z,-0.34
2018-03-17T17:19:55.948Z,-0.39
2018-03-17T17:21:17.570Z,-0.54
2018-03-17T17:22:39.468Z,-0.44
2018-03-17T17:24:01.664Z,-0.49
2018-03-17T17:25:23.601Z,-0.42
2018-03-17T17:26:45.520Z,-0.4
2018-03-17T17:28:07.708Z,-0.54
2018-03-17T17:29:29.999Z,-0.62
2018-03-17T17:30:52.247Z,-0.67
2018-03-17T17:32:14.451Z,-0.58
2018-03-17T17:33:36.661Z,-0.62
2018-03-17T17:34:59.028Z,-0.61
2018-03-17T17:36:21.211Z,-0.62
2018-03-17T17:37:42.870Z,-0.64
2018-03-17T17:39:04.906Z,-0.67
2018-03-17T17:40:27.118Z,-0.67
2018-03-17T17:41:49.121Z,-0.69
2018-03-17T17:43:11.271Z,-0.78
2018-03-17T17:44:33.468Z,-0.75
2018-03-17T17:45:55.771Z,-0.65
2018-03-17T17:47:18.216Z,-0.75
2018-03-17T17:48:40.391Z,-0.78
2018-03-17T17:50:02.082Z,-0.83
2018-03-17T17:51:24.243Z,-0.85
2018-03-17T17:52:46.165Z,-0.85
2018-03-17T17:54:08.179Z,-0.94
2018-03-17T17:55:30.500Z,-0.98
2018-03-17T17:56:52.690Z,-0.94
2018-03-17T17:58:14.900Z,-0.86
2018-03-17T17:59:37.142Z,-0.95
2018-03-17T18:00:59.070Z,-0.85
2018-03-17T18:02:20.715Z,-0.91
2018-03-17T18:03:42.399Z,-0.92
2018-03-17T18:05:04.572Z,-0.99
2018-03-17T18:06:26.759Z,-0.92
2018-03-17T18:07:48.645Z,-0.94
2018-03-17T18:09:10.822Z,-1.04
2018-03-17T18:10:32.472Z,-1.09
2018-03-17T18:11:54.689Z,-0.98
2018-03-17T18:13:16.854Z,-0.99
2018-03-17T18:14:38.747Z,-1.01
2018-03-17T18:16:00.647Z,-1.13
2018-03-17T18:17:22.673Z,-1.09
2018-03-17T18:18:44.563Z,-0.99
2018-03-17T18:20:06.007Z,-1.04
2018-03-17T18:21:28.175Z,-1.15
2018-03-17T18:22:50.390Z,-0.95
2018-03-17T18:24:12.045Z,-1.07
2018-03-17T18:25:34.470Z,-1.04
2018-03-17T18:26:57.244Z,-0.98
2018-03-17T18:28:19.246Z,-1.09
2018-03-17T18:29:41.560Z,-1.01
2018-03-17T18:31:03.451Z,-1.1
2018-03-17T18:32:24.913Z,-1.16
2018-03-17T18:33:47.103Z,-1.17
2018-03-17T18:35:40.937Z,-1.2
2018-03-17T18:37:03.095Z,-1.1
2018-03-17T18:38:25.289Z,-1.15
2018-03-17T18:39:47.214Z,-1.28
2018-03-17T18:41:09.407Z,-1.23
2018-03-17T18:42:31.363Z,-1.12
2018-03-17T18:43:53.293Z,-1.15
2018-03-17T18:45:15.257Z,-1.13
2018-03-17T18:46:37.756Z,-1.01
2018-03-17T18:47:59.684Z,-1.15
2018-03-17T18:49:21.906Z,-1.16
2018-03-17T18:50:44.165Z,-1.23
2018-03-17T18:52:06.074Z,-1.25
2018-03-17T18:53:28.275Z,-1.25
2018-03-17T18:54:49.943Z,-1.17
2018-03-17T18:56:12.120Z,-1.13
2018-03-17T18:57:33.798Z,-1.12
2018-03-17T18:58:55.825Z,-1.15
2018-03-17T19:00:18.012Z,-1.3
2018-03-17T19:01:40.207Z,-1.22
2018-03-17T19:03:02.386Z,-1.17
2018-03-17T19:04:24.435Z,-1.22
2018-03-17T19:05:46.770Z,-1.2
2018-03-17T19:07:08.681Z,-1.31
2018-03-17T19:08:30.815Z,-1.25
2018-03-17T19:09:52.726Z,-1.27
2018-03-17T19:11:14.666Z,-1.27
2018-03-17T19:12:36.846Z,-1.22
2018-03-17T19:13:59.014Z,-1.27
2018-03-17T19:15:21.412Z,-1.37
2018-03-17T19:16:43.464Z,-1.38
2018-03-17T19:18:37.518Z,-1.46
2018-03-17T19:19:59.541Z,-1.45
2018-03-17T19:21:21.454Z,-1.49
2018-03-17T19:22:43.392Z,-1.46
2018-03-17T19:24:05.602Z,-1.41
2018-03-17T19:25:27.303Z,-1.41
2018-03-17T19:26:49.252Z,-1.41
2018-03-17T19:28:11.504Z,-1.43
2018-03-17T19:29:33.292Z,-1.45
2018-03-17T19:30:55.012Z,-1.46
2018-03-17T19:32:17.194Z,-1.48
2018-03-17T19:33:39.147Z,-1.49
2018-03-17T19:35:01.491Z,-1.52
2018-03-17T19:36:23.695Z,-1.59
2018-03-17T19:37:45.357Z,-1.58
2018-03-17T19:39:07.614Z,-1.59
2018-03-17T19:40:29.316Z,-1.55
2018-03-17T19:41:51.271Z,-1.56
2018-03-17T19:43:13.291Z,-1.54
2018-03-17T19:44:35.760Z,-1.58
2018-03-17T19:45:57.993Z,-1.67
2018-03-17T19:47:19.905Z,-1.54
2018-03-17T19:48:41.837Z,-1.51
2018-03-17T19:50:03.768Z,-1.45
2018-03-17T19:51:25.685Z,-1.52
2018-03-17T19:52:47.603Z,-1.45
2018-03-17T19:54:09.511Z,-1.41
2018-03-17T19:55:31.182Z,-1.33
2018-03-17T19:56:53.386Z,-1.43
2018-03-17T19:58:15.549Z,-1.45
2018-03-17T19:59:37.756Z,-1.46
2018-03-17T20:01:00.025Z,-1.52
2018-03-17T20:02:22.254Z,-1.62
2018-03-17T20:03:44.455Z,-1.56
2018-03-17T20:05:06.211Z,-1.61
2018-03-17T20:06:27.975Z,-1.54
2018-03-17T20:07:49.996Z,-1.61
2018-03-17T20:09:12.221Z,-1.59
2018-03-17T20:10:34.477Z,-1.59
2018-03-17T20:11:56.203Z,-1.64
2018-03-17T20:13:18.363Z,-1.7
2018-03-17T20:14:40.312Z,-1.74
2018-03-17T20:16:02.452Z,-1.8
2018-03-17T20:17:24.803Z,-1.72
2018-03-17T20:18:46.756Z,-1.7
2018-03-17T20:20:08.769Z,-1.59
2018-03-17T20:21:31.002Z,-1.59
2018-03-17T20:22:52.708Z,-1.74
2018-03-17T20:24:14.658Z,-1.66
2018-03-17T20:25:36.643Z,-1.7
2018-03-17T20:26:58.909Z,-1.88
2018-03-17T20:28:21.180Z,-1.79
2018-03-17T20:29:43.406Z,-1.87
2018-03-17T20:31:05.327Z,-1.79
2018-03-17T20:32:27.302Z,-1.85
2018-03-17T20:33:49.213Z,-1.84
2018-03-17T20:35:11.200Z,-1.84
2018-03-17T20:36:33.145Z,-1.84
2018-03-17T20:37:54.816Z,-1.74
2018-03-17T20:39:16.573Z,-1.8
2018-03-17T20:40:38.374Z,-1.98
2018-03-17T20:42:00.079Z,-1.87
2018-03-17T20:43:21.813Z,-1.77
2018-03-17T20:44:43.766Z,-1.79
2018-03-17T20:46:05.795Z,-1.87
2018-03-17T20:47:27.453Z,-1.88
2018-03-17T20:48:49.649Z,-1.94
2018-03-17T20:50:11.649Z,-2
2018-03-17T20:51:33.290Z,-1.88
2018-03-17T20:52:54.933Z,-1.85
2018-03-17T20:54:16.647Z,-1.84
2018-03-17T20:55:38.827Z,-1.9
2018-03-17T20:57:00.818Z,-1.91
2018-03-17T20:58:22.754Z,-1.9
2018-03-17T20:59:44.968Z,-1.95
2018-03-17T21:01:06.878Z,-1.97
2018-03-17T21:02:28.027Z,-1.98
2018-03-17T21:03:49.985Z,-1.97
2018-03-17T21:05:12.174Z,-1.97
2018-03-17T21:06:34.364Z,-1.9
2018-03-17T21:07:56.315Z,-1.95
2018-03-17T21:09:18.507Z,-1.95
2018-03-17T21:10:40.409Z,-1.82
2018-03-17T21:12:02.354Z,-1.91
2018-03-17T21:13:23.768Z,-1.97
2018-03-17T21:14:45.743Z,-1.92
2018-03-17T21:16:08.017Z,-1.9
2018-03-17T21:17:30.563Z,-1.92
2018-03-17T21:18:52.493Z,-1.91
2018-03-17T21:20:14.723Z,-1.87
2018-03-17T21:21:36.622Z,-1.84
2018-03-17T21:22:58.283Z,-1.95
2018-03-17T21:24:20.518Z,-1.95
2018-03-17T21:25:42.745Z,-2.02
2018-03-17T21:27:05.006Z,-2.05
2018-03-17T21:28:27.182Z,-1.97
2018-03-17T21:29:48.547Z,-2.06
2018-03-17T21:31:10.202Z,-1.98
2018-03-17T21:32:31.865Z,-1.95
2018-03-17T21:33:53.878Z,-1.95
2018-03-17T21:35:15.874Z,-2.08
2018-03-17T21:36:37.516Z,-2.06
2018-03-17T21:37:59.454Z,-2.06
2018-03-17T21:39:21.658Z,-2.1
2018-03-17T21:40:42.777Z,-1.98
2018-03-17T21:42:04.706Z,-2
2018-03-17T21:43:26.624Z,-2.06
2018-03-17T21:44:48.797Z,-2.1
2018-03-17T21:46:10.725Z,-2.13
2018-03-17T21:47:32.753Z,-2.1
2018-03-17T21:48:54.706Z,-2.03
2018-03-17T21:50:16.927Z,-2.08
2018-03-17T21:51:39.314Z,-1.98
2018-03-17T21:53:00.975Z,-2.06
2018-03-17T21:54:23.156Z,-2.12
2018-03-17T21:55:45.066Z,-2.08
2018-03-17T21:57:07.242Z,-2.13
2018-03-17T21:58:29.205Z,-2.15
2018-03-17T21:59:51.115Z,-2.18
2018-03-17T22:01:13.040Z,-2
2018-03-17T22:02:34.981Z,-2.06
2018-03-17T22:03:56.896Z,-2.09
2018-03-17T22:05:19.334Z,-2.27
2018-03-17T22:06:41.523Z,-2.18
2018-03-17T22:08:03.959Z,-2.08
2018-03-17T22:09:25.973Z,-2.1
2018-03-17T22:10:47.626Z,-2.16
2018-03-17T22:12:09.873Z,-2.03
2018-03-17T22:13:31.531Z,-2.03
2018-03-17T22:14:53.751Z,-2.12
2018-03-17T22:16:15.779Z,-2.06
2018-03-17T22:17:37.768Z,-2.15
2018-03-17T22:18:59.418Z,-2.09
2018-03-17T22:20:21.134Z,-2.1
2018-03-17T22:21:42.951Z,-2.13
2018-03-17T22:23:04.894Z,-2.13
2018-03-17T22:24:26.839Z,-2.13
2018-03-17T22:25:48.783Z,-2.1
2018-03-17T22:27:11.065Z,-2.09
2018-03-17T22:28:32.992Z,-2.18
2018-03-17T22:29:54.891Z,-2.16
2018-03-17T22:31:16.981Z,-2.24
2018-03-17T22:32:38.908Z,-2.27
2018-03-17T22:34:00.261Z,-2.26
2018-03-17T22:35:22.236Z,-2.24
2018-03-17T22:36:44.123Z,-2.24
2018-03-17T22:38:06.092Z,-2.23
2018-03-17T22:39:27.996Z,-2.26
2018-03-17T22:40:50.199Z,-2.23
2018-03-17T22:42:12.490Z,-2.24
2018-03-17T22:43:34.690Z,-2.2
2018-03-17T22:44:56.838Z,-2.24
2018-03-17T22:46:18.545Z,-2.24
2018-03-17T22:47:40.185Z,-2.3
2018-03-17T22:49:01.904Z,-2.27
2018-03-17T22:50:23.782Z,-2.3
2018-03-17T22:51:45.961Z,-2.2
2018-03-17T22:53:08.123Z,-2.26
2018-03-17T22:54:30.026Z,-2.3
2018-03-17T22:55:51.917Z,-2.42
2018-03-17T22:57:13.813Z,-2.3
2018-03-17T22:58:35.987Z,-2.29
2018-03-17T22:59:57.632Z,-2.3
2018-03-17T23:01:19.787Z,-2.3
2018-03-17T23:02:41.978Z,-2.26
2018-03-17T23:04:03.921Z,-2.32
2018-03-17T23:05:25.507Z,-2.42
2018-03-17T23:06:47.414Z,-2.24
2018-03-17T23:08:09.127Z,-2.34
2018-03-17T23:09:30.764Z,-2.3
2018-03-17T23:10:52.813Z,-2.37
2018-03-17T23:12:15.100Z,-2.39
2018-03-17T23:13:36.774Z,-2.42
2018-03-17T23:14:58.521Z,-2.5
2018-03-17T23:16:20.222Z,-2.4
2018-03-17T23:17:42.395Z,-2.45
2018-03-17T23:19:04.663Z,-2.43
2018-03-17T23:20:26.595Z,-2.49
2018-03-17T23:21:48.504Z,-2.48
2018-03-17T23:23:10.489Z,-2.39
2018-03-17T23:24:32.453Z,-2.4
2018-03-17T23:25:54.695Z,-2.43
2018-03-17T23:27:16.655Z,-2.43
2018-03-17T23:28:38.539Z,-2.42
2018-03-17T23:30:00.394Z,-2.52
2018-03-17T23:31:22.564Z,-2.48
2018-03-17T23:32:44.205Z,-2.43
2018-03-17T23:34:06.104Z,-2.43
2018-03-17T23:35:28.036Z,-2.49
2018-03-17T23:36:49.635Z,-2.48
2018-03-17T23:38:11.654Z,-2.43
2018-03-17T23:39:33.734Z,-2.5
2018-03-17T23:40:55.679Z,-2.52
2018-03-17T23:42:17.287Z,-2.48
2018-03-17T23:43:39.161Z,-2.4
2018-03-17T23:45:01.102Z,-2.48
2018-03-17T23:46:23.252Z,-2.5
2018-03-17T23:47:44.849Z,-2.53
2018-03-17T23:49:06.732Z,-2.55
2018-03-17T23:50:28.920Z,-2.53
2018-03-17T23:51:50.602Z,-2.5
2018-03-17T23:53:12.538Z,-2.58
2018-03-17T23:54:33.889Z,-2.58
2018-03-17T23:55:55.774Z,-2.66
2018-03-17T23:57:17.922Z,-2.66
2018-03-17T23:58:40.080Z,-2.46
